Time;durP1;ratioP1;P1;durP2;ratioP2;P2;SDS_P1;SDS_P2;PMS_P1;PMS_P2;Temp;Humidity;BMP_temperature;BMP_pressure;BME280_temperature;BME280_humidity;BME280_pressure;Samples;Min_cycle;Max_cycle;Signal;HPM_P1;HPM_P2
2021/04/05 00:01:22;;;;;;;6.78;4.15;;;;;;;0.90;100.00;92903.81;5012808;28;20050;-78
2021/04/05 00:03:48;;;;;;;7.57;3.55;;;;;;;0.75;100.00;92908.72;5012592;28;20046;-78
2021/04/05 00:06:14;;;;;;;5.60;3.75;;;;;;;0.95;100.00;92911.72;5012702;28;20049;-79
2021/04/05 00:08:41;;;;;;;5.18;2.95;;;;;;;0.91;100.00;92911.25;5012570;28;20057;-78
2021/04/05 00:11:07;;;;;;;7.38;3.92;;;;;;;0.91;100.00;92910.44;5012387;28;20061;-78
2021/04/05 00:13:37;;;;;;;9.70;4.63;;;;;;;1.04;100.00;92915.03;5012569;28;20056;-78
2021/04/05 00:16:04;;;;;;;8.75;4.05;;;;;;;1.06;100.00;92897.94;5012706;28;20050;-78
2021/04/05 00:18:31;;;;;;;8.25;5.35;;;;;;;1.04;100.00;92923.44;5012533;28;20050;-78
2021/04/05 00:21:01;;;;;;;9.55;5.10;;;;;;;1.13;100.00;92909.03;5012634;28;20065;-78
2021/04/05 00:23:28;;;;;;;7.50;3.78;;;;;;;1.09;100.00;92914.56;5012261;28;20046;-78
2021/04/05 00:25:54;;;;;;;6.22;4.00;;;;;;;0.98;100.00;92916.47;5012231;28;20045;-80
2021/04/05 00:28:21;;;;;;;5.97;3.55;;;;;;;0.84;100.00;92912.03;5012485;28;20054;-80
2021/04/05 00:30:48;;;;;;;6.88;4.75;;;;;;;0.76;100.00;92913.63;5012089;28;20100;-81
2021/04/05 00:33:15;;;;;;;5.32;3.35;;;;;;;0.86;100.00;92908.41;5012502;28;20048;-80
2021/04/05 00:35:42;;;;;;;9.35;5.28;;;;;;;0.31;100.00;92839.00;5012445;28;20407;-79
2021/04/05 00:38:10;;;;;;;6.38;3.03;;;;;;;0.89;100.00;92913.13;5012400;28;20049;-80
2021/04/05 00:40:39;;;;;;;5.63;3.83;;;;;;;0.72;100.00;92914.06;5012620;28;20454;-79
2021/04/05 00:43:07;;;;;;;6.25;3.50;;;;;;;0.95;100.00;92915.97;5012247;28;20057;-80
2021/04/05 00:45:34;;;;;;;8.18;4.05;;;;;;;0.94;100.00;92912.69;5012083;28;20503;-79
2021/04/05 00:48:02;;;;;;;8.98;4.70;;;;;;;0.98;100.00;92913.16;5012216;28;20050;-80
2021/04/05 00:50:38;;;;;;;5.15;3.47;;;;;;;0.92;100.00;92915.34;5011600;28;20060;-79
2021/04/05 00:53:06;;;;;;;8.93;5.88;;;;;;;0.87;100.00;92924.34;5012090;28;20054;-79
2021/04/05 00:55:33;;;;;;;5.10;3.92;;;;;;;0.65;100.00;92912.16;5010686;28;20054;-79
2021/04/05 00:58:00;;;;;;;5.05;3.47;;;;;;;0.71;100.00;92905.72;5011829;28;20412;-80
2021/04/05 01:00:31;;;;;;;12.23;4.15;;;;;;;0.67;100.00;92912.03;5011679;28;20558;-79
2021/04/05 01:02:58;;;;;;;6.88;4.00;;;;;;;0.72;100.00;92914.88;5011933;28;20054;-79
2021/04/05 01:05:24;;;;;;;7.28;5.18;;;;;;;0.70;100.00;92908.38;5011880;28;20514;-81
2021/04/05 01:07:51;;;;;;;5.78;3.40;;;;;;;0.72;100.00;92912.34;5011620;28;20041;-80
2021/04/05 01:10:19;;;;;;;7.35;4.05;;;;;;;0.59;100.00;92912.78;5011685;28;20050;-82
2021/04/05 01:12:45;;;;;;;8.77;5.68;;;;;;;0.46;100.00;92907.41;5011848;28;20053;-81
2021/04/05 01:15:13;;;;;;;6.20;3.58;;;;;;;0.64;100.00;92914.84;5011434;28;20056;-80
2021/04/05 01:17:40;;;;;;;4.65;3.33;;;;;;;0.53;100.00;92908.38;5011746;28;20045;-81
2021/04/05 01:20:08;;;;;;;9.50;4.78;;;;;;;0.46;100.00;92913.25;5011578;28;20056;-81
2021/04/05 01:22:36;;;;;;;9.00;5.75;;;;;;;0.45;100.00;92914.19;5011538;28;20056;-81
2021/04/05 01:25:05;;;;;;;6.35;4.25;;;;;;;0.30;100.00;92896.31;5011261;28;20046;-81
2021/04/05 01:27:32;;;;;;;10.52;5.63;;;;;;;0.47;100.00;92919.09;5011491;28;20124;-81
2021/04/05 01:29:58;;;;;;;7.85;4.57;;;;;;;0.56;100.00;92909.78;5011378;28;20052;-84
2021/04/05 01:32:24;;;;;;;9.27;3.92;;;;;;;0.74;100.00;92918.03;5011028;28;20046;-86
2021/04/05 01:34:50;;;;;;;6.95;4.03;;;;;;;0.71;100.00;92904.91;5011386;28;20050;-83
2021/04/05 01:37:17;;;;;;;;;;;;;;;0.73;100.00;92916.44;5011461;28;20518;-82
2021/04/05 01:39:44;;;;;;;9.30;4.90;;;;;;;0.66;100.00;92918.81;5011511;28;19948;-86
2021/04/05 01:42:11;;;;;;;10.77;5.63;;;;;;;0.69;100.00;92917.69;5010952;28;20050;-86
2021/04/05 01:44:39;;;;;;;7.43;4.93;;;;;;;0.78;100.00;92921.81;5010715;28;20519;-87
2021/04/05 01:47:10;;;;;;;8.48;4.03;;;;;;;0.79;100.00;92923.41;5011024;28;20084;-86
2021/04/05 01:49:39;;;;;;;7.72;4.05;;;;;;;0.66;100.00;92910.44;5010587;28;20081;-83
2021/04/05 01:52:11;;;;;;;15.40;4.05;;;;;;;0.68;100.00;92923.72;5010946;28;20093;-85
2021/04/05 01:54:38;;;;;;;8.77;4.30;;;;;;;0.73;100.00;92920.69;5010624;28;20084;-82
2021/04/05 01:57:08;;;;;;;6.15;3.33;;;;;;;0.69;100.00;92905.06;5010703;28;20069;-82
2021/04/05 01:59:35;;;;;;;5.43;3.45;;;;;;;0.73;100.00;92921.50;5010941;28;20111;-81
2021/04/05 02:02:01;;;;;;;7.60;4.38;;;;;;;0.56;100.00;92912.31;5010555;28;20046;-81
2021/04/05 02:04:28;;;;;;;7.22;4.97;;;;;;;0.69;100.00;92920.22;5010687;28;20082;-81
2021/04/05 02:06:54;;;;;;;6.78;4.60;;;;;;;0.66;100.00;92925.59;5010388;28;20054;-81
2021/04/05 02:09:20;;;;;;;;;;;;;;;0.73;100.00;92923.22;5011061;28;20064;-81
2021/04/05 02:11:47;;;;;;;7.65;4.85;;;;;;;0.79;100.00;92920.09;5010434;28;19926;-80
2021/04/05 02:14:14;;;;;;;6.70;3.90;;;;;;;0.66;100.00;92901.09;5010335;28;20050;-80
2021/04/05 02:16:45;;;;;;;6.03;3.72;;;;;;;0.93;100.00;92929.56;5010659;28;20513;-80
2021/04/05 02:19:14;;;;;;;6.97;4.30;;;;;;;0.86;100.00;92921.03;5010335;28;20487;-84
2021/04/05 02:21:41;;;;;;;8.88;4.65;;;;;;;0.95;100.00;92928.63;5010459;28;20041;-84
2021/04/05 02:24:09;;;;;;;6.97;4.00;;;;;;;1.02;100.00;92925.31;5009983;28;20050;-84
2021/04/05 02:26:36;;;;;;;5.70;3.95;;;;;;;0.80;100.00;92876.16;5010578;28;20060;-85
2021/04/05 02:29:05;;;;;;;9.18;4.45;;;;;;;1.12;100.00;92921.84;5010351;28;20422;-85
2021/04/05 02:31:34;;;;;;;6.78;4.18;;;;;;;0.96;100.00;92900.66;5010843;28;20053;-82
2021/04/05 02:34:00;;;;;;;8.98;3.80;;;;;;;1.05;100.00;92909.81;5022003;28;20030;-84
2021/04/05 02:36:29;;;;;;;7.18;4.28;;;;;;;1.00;100.00;92912.03;5034156;28;20041;-84
2021/04/05 02:38:57;;;;;;;6.25;3.33;;;;;;;0.96;100.00;92915.06;5034068;28;20034;-83
2021/04/05 02:41:25;;;;;;;6.93;4.18;;;;;;;0.85;100.00;92924.53;5033000;28;20113;-83
2021/04/05 02:43:52;;;;;;;13.20;6.72;;;;;;;0.85;100.00;92926.25;5016028;28;20046;-84
2021/04/05 02:46:23;;;;;;;10.13;5.60;;;;;;;0.74;100.00;92923.06;5010499;28;20057;-83
2021/04/05 02:48:53;;;;;;;8.38;4.75;;;;;;;0.62;100.00;92920.06;5009915;28;20050;-83
2021/04/05 02:51:20;;;;;;;10.45;5.05;;;;;;;0.34;100.00;92895.06;5010083;28;20053;-83
2021/04/05 02:53:50;;;;;;;10.23;5.05;;;;;;;0.44;100.00;92911.81;5009397;28;20046;-82
2021/04/05 02:56:17;;;;;;;11.48;4.95;;;;;;;0.19;100.00;92884.75;5009720;28;20499;-84
2021/04/05 02:58:46;;;;;;;6.07;4.07;;;;;;;0.32;100.00;92899.47;5009601;28;20053;-82
2021/04/05 03:01:13;;;;;;;11.38;5.65;;;;;;;0.33;100.00;92928.06;5010025;28;20406;-82
2021/04/05 03:03:40;;;;;;;9.35;6.63;;;;;;;-0.14;100.00;92879.59;5009628;28;20265;-85
2021/04/05 03:06:11;;;;;;;6.05;4.03;;;;;;;0.09;100.00;92901.81;5009508;28;20100;-83
2021/04/05 03:08:38;;;;;;;16.27;8.30;;;;;;;0.40;100.00;92929.03;5009464;28;20057;-85
2021/04/05 03:11:04;;;;;;;37.05;14.48;;;;;;;0.47;100.00;92937.56;5009544;28;20095;-84
2021/04/05 03:13:33;;;;;;;11.15;6.68;;;;;;;0.22;100.00;92884.47;5009186;28;20050;-84
2021/04/05 03:15:59;;;;;;;9.27;6.28;;;;;;;0.65;100.00;92917.22;5009316;28;20499;-83
2021/04/05 03:18:27;;;;;;;10.63;5.45;;;;;;;0.73;100.00;92928.28;5008905;28;20353;-83
2021/04/05 03:20:55;;;;;;;7.22;4.22;;;;;;;0.64;100.00;92933.34;5009600;28;20046;-81
2021/04/05 03:23:23;;;;;;;8.23;4.43;;;;;;;0.73;100.00;92929.09;5009848;28;20092;-84
2021/04/05 03:25:50;;;;;;;9.32;4.47;;;;;;;0.74;100.00;92933.19;5010076;28;20465;-83
2021/04/05 03:28:16;;;;;;;;;;;;;;;0.72;100.00;92931.75;5010552;28;20046;-82
2021/04/05 03:30:48;;;;;;;10.48;6.65;;;;;;;0.71;100.00;92942.84;5009089;28;19921;-83
2021/04/05 03:33:19;;;;;;;11.10;6.15;;;;;;;0.77;100.00;92935.41;5009410;28;20046;-82
2021/04/05 03:35:51;;;;;;;12.50;5.78;;;;;;;0.82;100.00;92941.75;5009384;28;20046;-82
2021/04/05 03:38:17;;;;;;;10.57;5.35;;;;;;;0.83;100.00;92931.47;5004709;28;20050;-82
2021/04/05 03:40:45;;;;;;;10.98;4.90;;;;;;;0.86;100.00;92932.88;5006870;28;20678;-82
2021/04/05 03:43:18;;;;;;;11.27;6.45;;;;;;;0.69;100.00;92912.66;5008512;28;20116;-83
2021/04/05 03:45:49;;;;;;;8.63;5.50;;;;;;;0.77;100.00;92932.09;5009042;28;20054;-82
2021/04/05 03:48:21;;;;;;;14.27;8.30;;;;;;;0.80;100.00;92941.91;5009260;28;20050;-82
2021/04/05 03:50:51;;;;;;;11.20;5.93;;;;;;;0.77;100.00;92942.19;5009175;28;20060;-82
2021/04/05 03:53:25;;;;;;;8.40;5.57;;;;;;;0.74;100.00;92940.78;5009109;28;20495;-82
2021/04/05 03:55:57;;;;;;;11.07;6.65;;;;;;;0.70;100.00;92942.06;5009265;28;20491;-81
2021/04/05 03:58:27;;;;;;;16.88;8.07;;;;;;;0.48;100.00;92916.41;5009739;28;20080;-82
2021/04/05 04:00:56;;;;;;;18.75;11.45;;;;;;;0.60;100.00;92932.06;5009631;28;20104;-82
2021/04/05 04:03:32;;;;;;;14.57;7.32;;;;;;;0.44;100.00;92910.09;5009454;28;20434;-83
2021/04/05 04:06:02;;;;;;;13.35;7.93;;;;;;;0.59;100.00;92939.78;5009643;28;20137;-82
2021/04/05 04:08:34;;;;;;;15.02;6.38;;;;;;;0.53;100.00;92929.38;5008712;28;20117;-82
2021/04/05 04:11:06;;;;;;;13.32;6.07;;;;;;;0.53;100.00;92936.16;5008866;28;20050;-82
2021/04/05 04:13:36;;;;;;;9.77;6.28;;;;;;;0.55;100.00;92941.84;5008773;28;20081;-83
2021/04/05 04:16:04;;;;;;;11.27;5.60;;;;;;;0.51;100.00;92943.91;5009064;28;20046;-83
2021/04/05 04:18:31;;;;;;;11.18;6.35;;;;;;;0.37;100.00;92941.97;5006689;28;20049;-83
2021/04/05 04:20:58;;;;;;;7.80;6.38;;;;;;;0.22;100.00;92926.59;5008062;28;20046;-82
2021/04/05 04:23:25;;;;;;;14.93;5.95;;;;;;;0.27;100.00;92929.47;5008578;28;20073;-82
2021/04/05 04:25:53;;;;;;;11.65;8.07;;;;;;;0.16;100.00;92922.97;5008909;28;20100;-82
2021/04/05 04:28:20;;;;;;;10.80;6.03;;;;;;;0.10;100.00;92936.97;5008725;28;20141;-82
2021/04/05 04:30:55;;;;;;;10.30;6.43;;;;;;;0.06;100.00;92948.34;5009828;28;20046;-82
2021/04/05 04:33:21;;;;;;;10.18;6.13;;;;;;;0.08;100.00;92943.94;5011954;28;20053;-83
2021/04/05 04:35:48;;;;;;;8.32;6.10;;;;;;;0.07;100.00;92944.06;5011780;28;20174;-83
2021/04/05 04:38:14;;;;;;;10.13;5.07;;;;;;;-0.01;100.00;92947.34;5012115;28;20392;-83
2021/04/05 04:40:41;;;;;;;14.00;7.80;;;;;;;-0.28;100.00;92922.16;5012211;28;20050;-82
2021/04/05 04:43:08;;;;;;;9.98;4.63;;;;;;;-0.55;100.00;92875.19;5012157;28;20108;-83
2021/04/05 04:45:35;;;;;;;12.32;8.15;;;;;;;-0.33;100.00;92921.03;5012052;28;20465;-82
2021/04/05 04:48:02;;;;;;;17.83;9.70;;;;;;;-0.07;100.00;92950.50;5012139;28;20053;-83
2021/04/05 04:50:29;;;;;;;14.45;8.93;;;;;;;-0.32;100.00;92922.63;5011817;28;20441;-83
2021/04/05 04:52:56;;;;;;;22.67;8.35;;;;;;;-0.21;100.00;92951.84;5011796;28;20495;-82
2021/04/05 04:55:27;;;;;;;28.42;11.68;;;;;;;-0.12;100.00;92943.38;5011494;28;20541;-82
2021/04/05 04:57:57;;;;;;;24.42;12.18;;;;;;;-0.07;100.00;92963.13;5011926;28;20506;-83
2021/04/05 05:00:25;;;;;;;20.73;9.15;;;;;;;-0.04;100.00;92958.56;5011813;28;20045;-82
2021/04/05 05:02:53;;;;;;;13.15;7.68;;;;;;;-0.03;100.00;92965.22;5011166;28;20495;-82
2021/04/05 05:05:21;;;;;;;14.90;8.95;;;;;;;0.08;100.00;92969.19;5011827;28;20050;-83
2021/04/05 05:07:48;;;;;;;17.60;10.02;;;;;;;0.24;100.00;92975.25;5005235;28;20056;-83
2021/04/05 05:10:16;;;;;;;14.82;7.68;;;;;;;0.34;100.00;92973.41;5009494;28;20058;-83
2021/04/05 05:12:43;;;;;;;20.70;9.65;;;;;;;0.17;100.00;92927.06;5011663;28;20522;-82
2021/04/05 05:15:11;;;;;;;13.77;8.68;;;;;;;0.55;100.00;92976.47;5011408;28;20419;-81
2021/04/05 05:17:41;;;;;;;19.98;11.25;;;;;;;0.61;100.00;92974.09;5011025;28;20046;-82
2021/04/05 05:20:10;;;;;;;28.95;14.35;;;;;;;0.57;100.00;92959.41;5011299;28;20049;-81
2021/04/05 05:22:38;;;;;;;22.75;12.93;;;;;;;0.71;100.00;92978.22;5011234;28;20050;-82
2021/04/05 05:25:06;;;;;;;17.75;10.10;;;;;;;0.78;100.00;92979.97;5011396;28;20075;-82
2021/04/05 05:27:36;;;;;;;16.38;8.32;;;;;;;0.73;100.00;92974.59;5011232;28;20057;-81
2021/04/05 05:30:06;;;;;;;18.25;9.25;;;;;;;0.80;100.00;92979.84;5011112;28;20415;-81
2021/04/05 05:32:34;;;;;;;16.55;9.00;;;;;;;0.80;100.00;92983.13;5011494;28;20096;-81
2021/04/05 05:35:00;;;;;;;15.07;10.00;;;;;;;0.79;100.00;92963.84;5010938;28;20088;-81
2021/04/05 05:37:28;;;;;;;19.42;11.50;;;;;;;1.03;100.00;92987.59;5010948;28;20050;-82
2021/04/05 05:39:54;;;;;;;18.30;12.00;;;;;;;1.01;100.00;92960.88;5011103;28;20050;-81
2021/04/05 05:42:31;;;;;;;16.75;10.00;;;;;;;1.35;100.00;92987.78;5010380;28;20050;-81
2021/04/05 05:45:03;;;;;;;16.75;8.50;;;;;;;1.26;100.00;92938.13;5010845;28;20411;-82
2021/04/05 05:47:37;;;;;;;14.70;8.43;;;;;;;1.72;100.00;92990.75;5010391;28;20084;-82
2021/04/05 05:50:10;;;;;;;16.27;7.50;;;;;;;1.40;100.00;92934.16;5010387;28;20553;-84
2021/04/05 05:53:04;;;;;;;18.10;8.65;;;;;;;1.90;100.00;92992.31;5010424;28;20046;-83
2021/04/05 05:55:50;;;;;;;12.38;7.88;;;;;;;1.86;100.00;92986.78;5010438;28;20085;-82
2021/04/05 05:58:22;;;;;;;13.00;7.30;;;;;;;1.58;100.00;92929.69;5001736;28;20392;-82
2021/04/05 06:00:53;;;;;;;9.68;5.93;;;;;;;2.09;100.00;93006.34;5010519;28;20461;-82
2021/04/05 06:03:31;;;;;;;10.40;6.32;;;;;;;2.01;100.00;92979.28;5010472;28;20064;-81
2021/04/05 06:06:10;;;;;;;13.55;7.05;;;;;;;2.05;100.00;92985.63;5010032;28;20525;-81
2021/04/05 06:08:52;;;;;;;15.40;8.63;;;;;;;1.87;100.00;92958.72;5010407;28;20133;-82
2021/04/05 06:11:27;;;;;;;15.32;7.28;;;;;;;2.20;100.00;93000.13;5010506;28;20057;-81
2021/04/05 06:14:00;;;;;;;14.15;9.38;;;;;;;2.27;100.00;92999.31;5010235;28;20100;-81
2021/04/05 06:16:42;;;;;;;18.02;8.48;;;;;;;2.29;100.00;92994.09;5010371;28;21037;-82
2021/04/05 06:19:35;;;;;;;24.33;10.02;;;;;;;2.46;100.00;93014.31;5009753;28;20105;-82
2021/04/05 06:22:16;;;;;;;25.23;11.98;;;;;;;2.08;100.00;92952.34;5007514;28;20049;-82
2021/04/05 06:24:54;;;;;;;18.30;10.32;;;;;;;2.56;100.00;93009.84;5010275;28;20137;-83
2021/04/05 06:27:33;;;;;;;10.13;5.50;;;;;;;2.47;99.13;93026.03;5010163;28;20046;-82
2021/04/05 06:30:09;;;;;;;10.88;6.10;;;;;;;2.49;98.43;93032.53;5009989;28;20495;-82
2021/04/05 06:33:08;;;;;;;10.52;5.03;;;;;;;1.52;99.62;92998.69;5009925;28;20419;-82
2021/04/05 06:35:54;;;;;;;14.52;6.15;;;;;;;1.52;100.00;92995.38;5010035;28;20054;-81
2021/04/05 06:38:25;;;;;;;9.90;5.65;;;;;;;1.80;100.00;93023.66;5010040;28;20522;-82
2021/04/05 06:40:55;;;;;;;16.00;6.65;;;;;;;1.66;100.00;92977.00;5009843;28;20046;-83
2021/04/05 06:43:45;;;;;;;17.23;7.15;;;;;;;1.89;100.00;92980.59;5009557;28;20491;-83
2021/04/05 06:46:22;;;;;;;16.45;8.00;;;;;;;2.16;100.00;93021.72;5009588;28;20111;-82
2021/04/05 06:49:08;;;;;;;11.35;6.03;;;;;;;2.13;100.00;93026.13;5009549;28;20145;-81
2021/04/05 06:51:54;;;;;;;10.25;6.82;;;;;;;2.47;100.00;93028.56;5009683;28;20046;-81
2021/04/05 06:54:42;;;;;;;15.32;7.38;;;;;;;2.36;100.00;93017.06;5008989;28;20104;-82
2021/04/05 06:57:13;;;;;;;12.88;6.57;;;;;;;2.68;100.00;93030.53;5009478;28;20519;-81
2021/04/05 06:59:57;;;;;;;10.88;5.03;;;;;;;3.02;100.00;93029.41;5009575;28;20042;-81
2021/04/05 07:03:08;;;;;;;10.27;5.28;;;;;;;3.27;97.63;93033.53;5006661;28;20054;-81
2021/04/05 07:05:56;;;;;;;13.45;6.20;;;;;;;3.09;97.41;93011.00;5008953;28;20141;-80
2021/04/05 07:08:32;;;;;;;12.40;6.68;;;;;;;3.06;97.92;93004.50;5009748;28;20057;-81
2021/04/05 07:11:09;;;;;;;10.85;5.45;;;;;;;3.44;96.11;93037.56;5009218;28;20065;-80
2021/04/05 07:13:52;;;;;;;9.20;4.68;;;;;;;3.46;95.32;93035.66;5009617;28;20169;-80
2021/04/05 07:16:28;;;;;;;19.25;7.07;;;;;;;3.42;94.85;93041.25;5009349;28;20507;-80
2021/04/05 07:19:05;;;;;;;9.30;4.28;;;;;;;3.10;93.74;93048.09;5009128;28;20487;-80
2021/04/05 07:21:42;;;;;;;10.73;5.53;;;;;;;2.96;94.53;93047.06;5009204;28;20499;-81
2021/04/05 07:24:24;;;;;;;9.90;6.05;;;;;;;2.94;95.53;93042.97;5009361;28;20058;-81
2021/04/05 07:27:02;;;;;;;7.97;4.05;;;;;;;2.99;94.94;93047.53;5009069;28;20053;-80
2021/04/05 07:29:38;;;;;;;10.70;4.90;;;;;;;3.23;99.20;93035.63;5009490;28;20093;-80
2021/04/05 07:32:15;;;;;;;7.30;4.95;;;;;;;3.60;96.82;93049.34;5009277;28;20491;-81
2021/04/05 07:34:54;;;;;;;12.48;5.28;;;;;;;3.38;92.78;93052.69;5009355;28;20108;-81
2021/04/05 07:37:27;;;;;;;13.70;6.65;;;;;;;3.55;95.02;93055.88;5009143;28;20465;-81
2021/04/05 07:40:05;;;;;;;8.60;4.72;;;;;;;3.29;94.07;93050.19;5009061;28;20496;-80
2021/04/05 07:42:41;;;;;;;8.20;4.70;;;;;;;3.59;95.76;93054.59;5008954;28;20691;-81
2021/04/05 07:45:15;;;;;;;13.02;5.93;;;;;;;3.78;94.11;93055.06;5009171;28;20050;-81
2021/04/05 07:47:45;;;;;;;8.55;4.43;;;;;;;3.56;92.23;93044.78;5009711;28;20053;-81
2021/04/05 07:50:21;;;;;;;10.40;4.97;;;;;;;3.99;95.74;93052.66;5008668;28;20503;-81
2021/04/05 07:52:55;;;;;;;8.88;4.57;;;;;;;4.24;93.62;93057.53;5008921;28;20077;-81
2021/04/05 07:55:23;;;;;;;9.98;5.35;;;;;;;4.30;94.78;93047.63;5009211;28;20431;-81
2021/04/05 07:58:00;;;;;;;9.32;4.95;;;;;;;4.22;93.77;93036.56;5009084;28;20054;-81
2021/04/05 08:00:34;;;;;;;9.57;3.47;;;;;;;4.18;92.69;93067.59;5008869;28;20050;-81
2021/04/05 08:03:06;;;;;;;10.00;3.95;;;;;;;3.60;95.39;93056.16;5009208;28;20124;-81
2021/04/05 08:05:51;;;;;;;10.45;4.82;;;;;;;3.49;94.61;93067.53;5012135;28;20057;-80
2021/04/05 08:11:52;;;;;;;9.98;4.75;;;;;;;3.02;99.59;93072.53;5012580;28;20081;-80
2021/04/05 08:14:38;;;;;;;7.00;4.55;;;;;;;3.18;100.00;93069.16;5012351;28;20057;-79
2021/04/05 08:17:25;;;;;;;9.63;4.10;;;;;;;3.20;97.11;93064.69;5012672;28;20050;-79
2021/04/05 08:20:01;;;;;;;5.80;3.10;;;;;;;3.27;97.41;93061.47;5012632;28;20050;-80
2021/04/05 08:22:38;;;;;;;8.65;4.10;;;;;;;3.58;97.99;93074.13;5012493;28;20541;-80
2021/04/05 08:25:13;;;;;;;6.65;3.72;;;;;;;3.39;95.43;93061.88;5012279;28;20045;-80
2021/04/05 08:27:48;;;;;;;6.40;3.83;;;;;;;3.79;97.51;93061.75;5012624;28;20134;-80
2021/04/05 08:30:21;;;;;;;5.93;3.45;;;;;;;4.44;96.03;93062.09;5012398;28;20050;-80
2021/04/05 08:33:01;;;;;;;8.85;4.30;;;;;;;5.31;95.24;93080.16;5012061;28;20165;-80
2021/04/05 08:35:41;;;;;;;8.52;4.32;;;;;;;5.88;92.99;93079.50;5012417;28;20521;-80
2021/04/05 08:38:20;;;;;;;5.85;3.53;;;;;;;6.40;89.74;93085.19;5012185;28;20108;-80
2021/04/05 08:40:53;;;;;;;8.18;5.07;;;;;;;6.93;87.00;93080.56;5012252;28;20050;-83
2021/04/05 08:43:26;;;;;;;13.68;4.78;;;;;;;7.02;84.95;93071.75;5012182;28;20478;-83
2021/04/05 08:46:06;;;;;;;23.15;9.50;;;;;;;7.35;84.08;93070.28;5012394;28;20050;-83
2021/04/05 08:48:37;;;;;;;16.25;7.60;;;;;;;7.55;83.50;93037.09;5012097;28;20042;-82
2021/04/05 08:51:09;;;;;;;35.63;16.92;;;;;;;7.65;80.92;93053.81;5011736;28;20084;-81
2021/04/05 08:53:39;;;;;;;16.70;7.82;;;;;;;7.83;81.15;93051.47;5011557;28;20122;-84
2021/04/05 08:56:07;;;;;;;17.70;7.38;;;;;;;8.13;80.89;93042.63;5011610;28;20069;-83
2021/04/05 08:58:39;;;;;;;9.70;5.53;;;;;;;8.28;81.88;93044.97;5011765;28;20119;-84
2021/04/05 09:01:11;;;;;;;8.30;4.07;;;;;;;8.45;71.71;93042.78;5011646;28;20502;-83
2021/04/05 09:03:44;;;;;;;7.13;4.00;;;;;;;7.52;73.36;93041.81;5011822;28;20207;-84
2021/04/05 09:06:14;;;;;;;6.22;3.60;;;;;;;6.51;76.88;93011.66;5011698;28;20427;-84
2021/04/05 09:08:43;;;;;;;6.60;3.50;;;;;;;6.41;75.70;93001.78;5011632;28;20053;-83
2021/04/05 09:11:12;;;;;;;9.02;3.90;;;;;;;7.31;75.52;93036.66;5011425;28;20633;-83
2021/04/05 09:13:43;;;;;;;8.50;4.18;;;;;;;6.99;76.21;93048.38;5011258;28;20061;-84
2021/04/05 09:16:31;;;;;;;7.47;4.10;;;;;;;6.79;74.79;93047.31;5010314;28;20046;-84
2021/04/05 09:19:15;;;;;;;9.25;3.95;;;;;;;7.65;81.42;93025.72;5004504;28;20045;-82
2021/04/05 09:22:17;;;;;;;11.05;4.63;;;;;;;8.21;77.49;93026.28;5011662;28;20050;-83
2021/04/05 09:25:20;;;;;;;6.72;3.90;;;;;;;8.61;70.69;93022.88;5011453;28;20167;-83
2021/04/05 09:28:05;;;;;;;10.18;4.60;;;;;;;9.14;77.46;93010.84;5011223;28;20044;-83
2021/04/05 09:31:06;;;;;;;8.73;4.15;;;;;;;9.45;74.09;93017.75;5011175;28;20152;-82
2021/04/05 09:34:10;;;;;;;8.73;4.40;;;;;;;9.47;71.39;93015.78;5011206;28;20128;-82
2021/04/05 09:37:10;;;;;;;5.38;3.53;;;;;;;9.00;73.14;93015.22;5011239;28;20168;-82
2021/04/05 09:40:01;;;;;;;7.65;3.40;;;;;;;8.73;74.05;93015.34;5011214;28;20085;-82
2021/04/05 09:43:07;;;;;;;6.40;3.10;;;;;;;8.15;65.35;93015.84;5011244;28;20091;-82
2021/04/05 09:45:42;;;;;;;6.60;3.67;;;;;;;8.45;72.63;93006.13;5011211;28;20053;-83
2021/04/05 09:48:24;;;;;;;9.68;5.00;;;;;;;8.70;74.71;92980.69;5013829;28;20133;-83
2021/04/05 09:51:21;;;;;;;9.30;4.28;;;;;;;9.21;75.11;92997.00;5026941;28;20065;-84
2021/04/05 09:53:59;;;;;;;7.25;3.78;;;;;;;9.67;74.32;92998.69;5026842;28;20562;-83
2021/04/05 09:56:28;;;;;;;5.32;3.25;;;;;;;9.40;65.04;92986.03;5029707;28;20057;-84
2021/04/05 09:59:01;;;;;;;6.00;3.90;;;;;;;9.41;67.08;92992.72;5018598;28;20144;-83
2021/04/05 10:01:30;;;;;;;34.42;10.23;;;;;;;9.75;72.61;92980.47;5010800;28;20096;-83
2021/04/05 10:04:01;;;;;;;10.65;4.95;;;;;;;9.75;70.31;92972.75;5010564;28;20050;-82
2021/04/05 10:06:33;;;;;;;7.38;3.53;;;;;;;9.75;70.18;92963.28;5010664;28;20050;-82
2021/04/05 10:09:00;;;;;;;38.35;13.13;;;;;;;9.98;68.25;92954.22;5010412;28;20418;-84
2021/04/05 10:11:29;;;;;;;89.70;26.50;;;;;;;10.56;71.24;92962.53;5010368;28;20053;-84
2021/04/05 10:13:59;;;;;;;18.30;6.88;;;;;;;10.63;67.78;92954.75;5010266;28;20062;-83
2021/04/05 10:16:26;;;;;;;7.97;3.35;;;;;;;10.73;63.93;92946.53;5010591;28;20406;-83
2021/04/05 10:18:55;;;;;;;8.60;4.03;;;;;;;10.55;62.70;92949.88;5010742;28;20102;-83
2021/04/05 10:21:23;;;;;;;6.40;3.17;;;;;;;10.64;66.51;92958.88;5010787;28;20115;-83
2021/04/05 10:23:52;;;;;;;15.38;5.75;;;;;;;10.66;65.84;92944.03;5010283;28;20104;-83
2021/04/05 10:26:21;;;;;;;7.25;3.42;;;;;;;10.77;64.84;92963.06;5010511;28;20063;-83
2021/04/05 10:28:48;;;;;;;9.00;4.18;;;;;;;10.85;63.29;92936.31;5010420;28;20487;-83
2021/04/05 10:31:18;;;;;;;10.30;4.13;;;;;;;10.62;50.62;92934.41;5010400;28;20455;-84
2021/04/05 10:33:46;;;;;;;6.45;2.90;;;;;;;10.83;60.61;92948.56;5010007;28;20061;-82
2021/04/05 10:36:19;;;;;;;7.40;2.97;;;;;;;10.91;61.15;92927.72;5010246;28;20423;-84
2021/04/05 10:38:46;;;;;;;7.72;3.95;;;;;;;10.89;60.55;92918.66;5009902;28;20427;-83
2021/04/05 10:41:16;;;;;;;10.05;3.00;;;;;;;11.11;56.42;92923.31;5010149;28;20061;-83
2021/04/05 10:43:49;;;;;;;4.10;2.35;;;;;;;11.03;57.75;92889.22;5010329;28;20050;-85
2021/04/05 10:46:17;;;;;;;4.80;2.80;;;;;;;11.19;55.55;92921.22;5009933;28;20076;-86
2021/04/05 10:48:50;;;;;;;7.13;2.88;;;;;;;11.09;56.77;92923.53;5009735;28;20046;-82
2021/04/05 10:51:22;;;;;;;3.00;2.05;;;;;;;10.76;54.74;92907.56;5009716;28;20057;-83
2021/04/05 10:53:52;;;;;;;6.00;2.25;;;;;;;10.77;57.74;92914.25;5009440;28;20155;-83
2021/04/05 10:56:20;;;;;;;4.30;2.10;;;;;;;10.94;53.55;92903.38;5009687;28;20415;-81
2021/04/05 10:58:50;;;;;;;5.40;2.33;;;;;;;11.31;56.74;92898.09;5009531;28;20330;-84
2021/04/05 11:01:17;;;;;;;3.95;2.40;;;;;;;11.50;56.45;92887.72;5009532;28;20049;-84
2021/04/05 11:03:48;;;;;;;11.57;3.97;;;;;;;11.75;55.50;92904.69;5009535;28;20617;-82
2021/04/05 11:06:17;;;;;;;6.35;3.40;;;;;;;11.86;55.16;92903.91;5009854;28;20054;-82
2021/04/05 11:08:47;;;;;;;8.88;4.07;;;;;;;11.88;54.02;92890.81;5009810;28;20422;-82
2021/04/05 11:11:17;;;;;;;7.55;4.20;;;;;;;12.12;55.78;92880.53;5009743;28;20454;-82
2021/04/05 11:13:48;;;;;;;5.22;2.75;;;;;;;11.96;50.84;92882.78;5009721;28;20466;-83
2021/04/05 11:16:18;;;;;;;3.97;2.10;;;;;;;11.86;47.56;92875.59;5009773;28;20050;-83
2021/04/05 11:18:47;;;;;;;11.27;5.05;;;;;;;12.16;56.18;92876.50;5009425;28;20570;-82
2021/04/05 11:21:16;;;;;;;5.68;3.03;;;;;;;12.18;56.65;92853.09;5009713;28;20414;-83
2021/04/05 11:23:43;;;;;;;4.50;2.25;;;;;;;12.39;53.67;92860.22;5009331;28;20053;-82
2021/04/05 11:26:11;;;;;;;7.10;3.17;;;;;;;12.58;56.24;92854.09;5009424;28;20066;-81
2021/04/05 11:28:41;;;;;;;5.03;3.50;;;;;;;12.32;52.41;92859.56;5009583;28;20050;-81
2021/04/05 11:31:15;;;;;;;4.57;2.60;;;;;;;11.61;51.22;92857.84;5009405;28;20065;-82
2021/04/05 11:33:48;;;;;;;5.32;2.53;;;;;;;11.37;55.40;92814.13;5009699;28;20042;-82
2021/04/05 11:36:15;;;;;;;9.02;3.90;;;;;;;11.71;55.80;92826.41;5009522;28;20407;-82
2021/04/05 11:38:46;;;;;;;8.80;3.40;;;;;;;12.03;56.70;92834.53;5009500;28;20061;-82
2021/04/05 11:41:16;;;;;;;6.75;2.97;;;;;;;12.12;54.30;92841.91;5012949;28;20042;-82
2021/04/05 11:43:48;;;;;;;4.63;2.20;;;;;;;12.43;52.77;92835.56;5010322;28;20100;-82
2021/04/05 11:46:17;;;;;;;5.05;3.20;;;;;;;12.47;54.06;92812.69;5012880;28;20077;-82
2021/04/05 11:48:44;;;;;;;5.25;2.70;;;;;;;11.64;49.41;92826.53;5012316;28;20129;-83
2021/04/05 11:51:22;;;;;;;5.55;3.20;;;;;;;11.02;49.00;92795.09;5012612;28;20054;-82
2021/04/05 11:53:56;;;;;;;5.75;3.28;;;;;;;11.49;56.05;92807.19;5011599;28;20484;-81
2021/04/05 11:56:25;;;;;;;5.22;2.67;;;;;;;11.79;55.57;92797.00;5010717;28;20396;-81
2021/04/05 11:59:01;;;;;;;4.55;2.35;;;;;;;12.12;54.20;92793.00;5013166;28;20046;-84